createdAt,value
2023-04-02T00:01:57.213Z,85.00
2023-04-02T00:10:03.113Z,85.00
2023-04-02T00:18:13.895Z,84.70
2023-04-02T00:26:27.692Z,85.20
2023-04-02T00:34:38.160Z,85.80
2023-04-02T00:42:44.922Z,85.80
2023-04-02T00:50:56.510Z,86.10
2023-04-02T00:59:02.453Z,85.80
2023-04-02T01:07:15.195Z,85.60
2023-04-02T01:15:24.147Z,86.00
2023-04-02T01:23:42.436Z,85.70
2023-04-02T01:31:52.502Z,85.90
2023-04-02T01:40:17.972Z,85.90
2023-04-02T01:48:30.167Z,85.50
2023-04-02T01:56:35.990Z,85.40
2023-04-02T02:04:44.439Z,85.40
2023-04-02T02:12:50.678Z,85.50
2023-04-02T02:21:01.159Z,85.60
2023-04-02T02:29:09.928Z,85.60
2023-04-02T02:37:23.583Z,85.70
2023-04-02T02:45:34.512Z,85.30
2023-04-02T02:53:54.187Z,85.30
2023-04-02T03:02:01.123Z,86.20
2023-04-02T03:10:17.940Z,85.50
2023-04-02T03:18:35.096Z,85.20
2023-04-02T03:26:48.820Z,85.20
2023-04-02T03:34:58.407Z,84.80
2023-04-02T03:43:13.846Z,85.20
2023-04-02T03:51:24.747Z,85.20
2023-04-02T03:59:41.999Z,84.80
2023-04-02T04:07:48.980Z,84.60
2023-04-02T04:16:03.460Z,84.60
2023-04-02T04:24:11.221Z,84.40
2023-04-02T04:32:32.324Z,84.00
2023-04-02T04:40:52.553Z,84.20
2023-04-02T04:49:07.713Z,84.50
2023-04-02T04:57:26.115Z,84.50
2023-04-02T05:05:37.271Z,84.00
2023-04-02T05:13:50.467Z,84.40
2023-04-02T05:22:07.617Z,84.60
2023-04-02T05:30:23.653Z,85.40
2023-04-02T05:38:37.093Z,85.80
2023-04-02T05:46:49.646Z,86.70
2023-04-02T05:55:03.250Z,86.80
2023-04-02T06:03:19.288Z,89.70
2023-04-02T06:11:31.559Z,88.70
2023-04-02T06:19:41.806Z,88.00
2023-04-02T06:27:52.273Z,86.20
2023-04-02T06:36:00.008Z,86.00
2023-04-02T06:44:18.679Z,84.80
2023-04-02T06:52:47.248Z,84.00
2023-04-02T07:00:55.799Z,83.40
2023-04-02T07:09:09.767Z,82.30
2023-04-02T07:17:23.419Z,81.80
2023-04-02T07:25:29.811Z,80.70
2023-04-02T07:33:37.877Z,80.20
2023-04-02T07:41:57.573Z,80.40
2023-04-02T07:50:05.660Z,79.70
2023-04-02T07:58:12.476Z,79.40
2023-04-02T08:06:21.334Z,79.30
2023-04-02T08:14:26.779Z,79.10
2023-04-02T08:22:34.984Z,79.30
2023-04-02T08:30:40.862Z,79.60
2023-04-02T08:38:49.358Z,80.50
2023-04-02T08:46:59.649Z,80.10
2023-04-02T08:55:17.556Z,80.60
2023-04-02T09:03:30.733Z,82.00
2023-04-02T09:11:44.710Z,82.70
2023-04-02T09:19:58.905Z,82.50
2023-04-02T09:28:08.613Z,82.70
2023-04-02T09:36:28.440Z,82.50
2023-04-02T09:44:37.466Z,81.50
2023-04-02T09:52:43.328Z,81.00
2023-04-02T10:00:57.881Z,78.10
2023-04-02T10:09:23.305Z,76.30
2023-04-02T10:17:36.126Z,75.60
2023-04-02T10:25:50.617Z,74.70
2023-04-02T10:34:03.742Z,69.90
2023-04-02T10:42:19.490Z,56.40
2023-04-02T10:50:36.802Z,46.80
2023-04-02T10:58:48.897Z,41.50
2023-04-02T11:07:10.986Z,42.40
2023-04-02T11:15:21.239Z,43.80
2023-04-02T11:23:31.538Z,48.00
2023-04-02T11:31:43.174Z,46.70
2023-04-02T11:39:57.413Z,44.30
2023-04-02T11:48:31.348Z,47.60
2023-04-02T11:56:48.395Z,56.20
2023-04-02T12:05:19.603Z,62.50
2023-04-02T12:13:54.568Z,69.40
2023-04-02T12:22:01.095Z,73.50
2023-04-02T12:30:22.253Z,73.80
2023-04-02T12:38:29.697Z,72.20
2023-04-02T12:46:38.809Z,73.60
2023-04-02T12:54:48.911Z,76.60
2023-04-02T13:03:04.287Z,80.00
2023-04-02T13:11:10.307Z,82.60
2023-04-02T13:19:34.444Z,83.20
2023-04-02T13:27:39.912Z,81.80
2023-04-02T13:35:49.356Z,83.50
2023-04-02T13:43:56.464Z,84.40
2023-04-02T13:52:17.013Z,83.80
2023-04-02T14:00:23.638Z,83.50
2023-04-02T14:08:41.572Z,86.90
2023-04-02T14:17:00.957Z,88.00
2023-04-02T14:25:18.365Z,88.30
2023-04-02T14:33:35.207Z,86.70
2023-04-02T14:41:50.488Z,88.00
2023-04-02T14:49:59.896Z,88.50
2023-04-02T14:58:18.298Z,86.00
2023-04-02T15:06:29.415Z,82.30
2023-04-02T15:14:42.588Z,79.60
2023-04-02T15:23:00.057Z,80.00
2023-04-02T15:31:14.990Z,79.30
2023-04-02T15:39:42.502Z,81.00
2023-04-02T15:48:01.380Z,81.30
2023-04-02T15:56:25.882Z,83.50
2023-04-02T16:04:53.496Z,84.90
2023-04-02T16:12:59.773Z,88.40
2023-04-02T16:21:08.136Z,86.80
2023-04-02T16:29:35.524Z,85.80
2023-04-02T16:46:39.767Z,85.80
2023-04-02T16:54:52.669Z,85.60
2023-04-02T17:03:15.521Z,86.30
2023-04-02T17:11:28.259Z,86.40
2023-04-02T17:19:36.995Z,85.60
2023-04-02T17:27:47.403Z,85.80
2023-04-02T17:36:14.744Z,85.40
2023-04-02T17:44:57.315Z,85.20
2023-04-02T17:53:13.471Z,86.60
2023-04-02T18:01:30.113Z,87.00
2023-04-02T18:09:47.611Z,86.50
2023-04-02T18:18:05.127Z,86.40
2023-04-02T18:26:32.661Z,86.10
2023-04-02T18:34:50.288Z,85.80
2023-04-02T18:43:08.668Z,85.90
2023-04-02T18:51:18.946Z,86.10
2023-04-02T18:59:44.637Z,85.40
2023-04-02T19:07:53.743Z,84.80
2023-04-02T19:16:14.023Z,85.00
2023-04-02T19:24:31.956Z,85.30
2023-04-02T19:32:48.774Z,84.50
2023-04-02T19:41:02.585Z,85.80
2023-04-02T19:49:14.781Z,86.00
2023-04-02T19:57:20.766Z,85.80
2023-04-02T20:05:29.079Z,86.40
2023-04-02T20:13:44.920Z,86.20
2023-04-02T20:21:52.921Z,86.30
2023-04-02T20:29:58.420Z,89.70
2023-04-02T20:38:08.498Z,89.60
2023-04-02T20:46:16.089Z,88.70
2023-04-02T20:54:24.624Z,87.30
2023-04-02T21:02:30.282Z,87.50
2023-04-02T21:10:38.452Z,87.20
2023-04-02T21:18:43.954Z,87.50
2023-04-02T21:26:52.121Z,87.70
2023-04-02T21:34:57.934Z,88.90
2023-04-02T21:43:09.233Z,89.00
2023-04-02T21:51:19.506Z,89.40
2023-04-02T21:59:30.668Z,90.20
2023-04-02T22:07:36.205Z,90.50
2023-04-02T22:15:44.255Z,90.30
2023-04-02T22:23:50.892Z,90.00
2023-04-02T22:41:35.814Z,90.00
2023-04-02T22:49:41.322Z,89.40
2023-04-02T22:57:49.715Z,89.60
2023-04-02T23:06:02.056Z,89.20
2023-04-02T23:14:10.129Z,89.50
2023-04-02T23:22:15.520Z,89.00
2023-04-02T23:30:23.654Z,88.80
2023-04-02T23:38:30.084Z,89.80
2023-04-02T23:46:38.974Z,89.20
2023-04-02T23:54:44.443Z,89.30
